createdAt,value
2019-02-17T00:00:54.643Z,20.93
2019-02-17T00:03:35.579Z,20.40
2019-02-17T00:06:16.392Z,19.87
2019-02-17T00:08:57.307Z,19.77
2019-02-17T00:11:38.184Z,19.83
2019-02-17T00:14:19.132Z,18.33
2019-02-17T00:16:59.554Z,17.80
2019-02-17T00:19:40.800Z,17.33
2019-02-17T00:22:21.243Z,17.17
2019-02-17T00:25:02.221Z,17.60
2019-02-17T00:27:43.249Z,17.87
2019-02-17T00:30:24.211Z,17.17
2019-02-17T00:33:04.941Z,16.87
2019-02-17T00:35:45.833Z,17.37
2019-02-17T00:38:26.673Z,16.20
2019-02-17T00:41:07.512Z,17.33
2019-02-17T00:43:48.173Z,17.27
2019-02-17T00:46:28.785Z,17.40
2019-02-17T00:49:10.200Z,16.93
2019-02-17T00:51:50.712Z,18.10
2019-02-17T00:54:31.948Z,19.37
2019-02-17T00:57:00.647Z,18.07
2019-02-17T00:59:48.701Z,17.60
2019-02-17T01:02:36.460Z,18.43
2019-02-17T01:05:24.204Z,18.57
2019-02-17T01:08:12.229Z,17.27
2019-02-17T01:11:00.009Z,19.13
2019-02-17T01:13:47.761Z,19.00
2019-02-17T01:16:35.525Z,18.47
2019-02-17T01:19:23.299Z,18.77
2019-02-17T01:22:11.052Z,18.20
2019-02-17T01:24:59.120Z,18.87
2019-02-17T01:27:46.856Z,18.00
2019-02-17T01:30:34.636Z,19.87
2019-02-17T01:33:22.405Z,18.00
2019-02-17T01:36:10.172Z,18.90
2019-02-17T01:38:57.941Z,17.67
2019-02-17T01:41:45.703Z,17.90
2019-02-17T01:44:33.480Z,17.47
2019-02-17T01:47:21.253Z,17.23
2019-02-17T01:50:09.179Z,16.37
2019-02-17T01:52:49.379Z,17.20
2019-02-17T01:55:30.560Z,17.17
2019-02-17T01:58:11.387Z,16.57
2019-02-17T02:00:39.961Z,16.80
2019-02-17T02:03:27.729Z,16.03
2019-02-17T02:06:15.472Z,16.50
2019-02-17T02:09:14.587Z,17.23
2019-02-17T02:12:02.606Z,16.70
2019-02-17T02:14:50.368Z,16.80
2019-02-17T02:17:38.476Z,18.40
2019-02-17T02:20:26.225Z,19.20
2019-02-17T02:23:13.996Z,18.87
2019-02-17T02:26:01.766Z,20.40
2019-02-17T02:28:49.528Z,20.70
2019-02-17T02:31:37.278Z,20.13
2019-02-17T02:34:25.036Z,21.33
2019-02-17T02:37:12.810Z,22.00
2019-02-17T02:40:00.595Z,20.33
2019-02-17T02:42:48.350Z,21.63
2019-02-17T02:45:36.426Z,20.13
2019-02-17T02:48:24.172Z,20.00
2019-02-17T02:51:04.825Z,19.63
2019-02-17T02:53:46.032Z,21.03
2019-02-17T02:56:27.060Z,20.53
2019-02-17T02:59:08.304Z,19.83
2019-02-17T03:01:49.039Z,20.73
2019-02-17T03:04:29.999Z,19.43
2019-02-17T03:07:10.670Z,19.03
2019-02-17T03:09:51.313Z,19.80
2019-02-17T03:12:32.201Z,20.83
2019-02-17T03:15:13.012Z,19.87
2019-02-17T03:17:53.917Z,20.17
2019-02-17T03:20:34.703Z,20.67
2019-02-17T03:23:15.726Z,20.47
2019-02-17T03:25:56.479Z,21.13
2019-02-17T03:28:37.428Z,20.30
2019-02-17T03:31:18.306Z,20.00
2019-02-17T03:33:58.760Z,20.20
2019-02-17T03:36:39.470Z,19.23
2019-02-17T03:39:21.674Z,19.47
2019-02-17T03:42:02.366Z,19.83
2019-02-17T03:44:43.598Z,19.10
2019-02-17T03:47:24.188Z,21.80
2019-02-17T03:50:05.024Z,20.53
2019-02-17T03:52:45.816Z,21.23
2019-02-17T03:55:26.893Z,20.33
2019-02-17T03:58:07.776Z,20.67
2019-02-17T04:00:48.233Z,19.40
2019-02-17T04:03:29.345Z,20.70
2019-02-17T04:06:10.062Z,21.47
2019-02-17T04:08:50.786Z,21.20
2019-02-17T04:11:31.537Z,20.13
2019-02-17T04:14:12.683Z,21.33
2019-02-17T04:16:53.380Z,20.73
2019-02-17T04:19:34.011Z,20.57
2019-02-17T04:22:14.644Z,20.53
2019-02-17T04:24:55.498Z,21.57
2019-02-17T04:27:36.015Z,21.07
2019-02-17T04:30:28.135Z,22.17
2019-02-17T04:32:58.630Z,21.00
2019-02-17T04:35:39.464Z,20.37
2019-02-17T04:38:20.161Z,21.97
2019-02-17T04:41:01.037Z,21.33
2019-02-17T04:43:41.854Z,21.17
2019-02-17T04:46:22.742Z,22.30
2019-02-17T04:49:03.374Z,21.63
2019-02-17T04:51:44.204Z,21.00
2019-02-17T04:54:25.133Z,22.00
2019-02-17T04:57:05.854Z,21.23
2019-02-17T04:59:46.709Z,21.60
2019-02-17T05:02:27.458Z,20.90
2019-02-17T05:05:08.361Z,21.83
2019-02-17T05:07:49.206Z,21.33
2019-02-17T05:10:30.151Z,21.33
2019-02-17T05:13:11.037Z,21.60
2019-02-17T05:15:51.651Z,22.57
2019-02-17T05:18:20.060Z,21.23
2019-02-17T05:21:07.824Z,22.37
2019-02-17T05:23:55.568Z,21.77
2019-02-17T05:26:43.325Z,21.97
2019-02-17T05:29:31.093Z,22.37
2019-02-17T05:32:18.861Z,21.63
2019-02-17T05:35:06.677Z,22.80
2019-02-17T05:37:54.448Z,23.23
2019-02-17T05:40:42.561Z,23.97
2019-02-17T05:43:30.324Z,22.87
2019-02-17T05:46:18.068Z,23.17
2019-02-17T05:49:05.833Z,23.13
2019-02-17T05:51:46.469Z,22.47
2019-02-17T05:54:27.116Z,23.43
2019-02-17T05:57:07.958Z,24.33
2019-02-17T05:59:48.132Z,24.10
2019-02-17T06:02:29.100Z,23.47
2019-02-17T06:05:10.057Z,24.10
2019-02-17T06:07:51.065Z,23.33
2019-02-17T06:10:31.637Z,24.73
2019-02-17T06:13:12.257Z,24.87
2019-02-17T06:15:52.637Z,23.67
2019-02-17T06:18:33.684Z,24.40
2019-02-17T06:21:14.438Z,24.40
2019-02-17T06:23:55.156Z,24.03
2019-02-17T06:26:35.831Z,24.97
2019-02-17T06:29:16.838Z,23.80
2019-02-17T06:31:57.937Z,25.47
2019-02-17T06:34:38.600Z,23.43
2019-02-17T06:37:19.126Z,25.60
2019-02-17T06:40:00.499Z,25.80
2019-02-17T06:42:41.521Z,24.47
2019-02-17T06:45:22.613Z,25.60
2019-02-17T06:48:03.555Z,24.57
2019-02-17T06:50:43.852Z,24.43
2019-02-17T06:53:24.872Z,24.03
2019-02-17T06:56:10.327Z,24.57
2019-02-17T06:58:51.526Z,24.60
2019-02-17T07:01:32.197Z,25.00
2019-02-17T07:04:12.695Z,25.50
2019-02-17T07:06:55.162Z,24.87
2019-02-17T07:09:36.160Z,25.63
2019-02-17T07:12:16.650Z,25.00
2019-02-17T07:14:57.388Z,26.63
2019-02-17T07:17:38.389Z,25.77
2019-02-17T07:20:18.965Z,25.37
2019-02-17T07:22:59.360Z,25.53
2019-02-17T07:25:40.014Z,26.23
2019-02-17T07:28:20.467Z,24.57
2019-02-17T07:31:00.825Z,26.67
2019-02-17T07:33:41.813Z,27.30
2019-02-17T07:36:23.082Z,26.13
2019-02-17T07:39:05.028Z,25.97
2019-02-17T07:41:45.889Z,26.30
2019-02-17T07:44:26.457Z,25.20
2019-02-17T07:47:07.144Z,25.47
2019-02-17T07:49:47.827Z,26.60
2019-02-17T07:52:28.603Z,26.83
2019-02-17T07:55:09.523Z,24.80
2019-02-17T07:57:50.462Z,26.90
2019-02-17T08:00:31.559Z,25.40
2019-02-17T08:03:12.332Z,25.73
2019-02-17T08:05:52.865Z,25.57
2019-02-17T08:08:33.759Z,27.27
2019-02-17T08:11:14.820Z,26.67
2019-02-17T08:13:55.541Z,27.03
2019-02-17T08:16:36.344Z,26.73
2019-02-17T08:19:16.672Z,26.33
2019-02-17T08:21:57.622Z,26.37
2019-02-17T08:24:38.162Z,27.63
2019-02-17T08:27:18.981Z,25.77
2019-02-17T08:29:59.780Z,26.93
2019-02-17T08:32:40.431Z,26.97
2019-02-17T08:35:21.193Z,27.93
2019-02-17T08:38:03.547Z,27.13
2019-02-17T08:40:43.952Z,27.40
2019-02-17T08:43:24.858Z,27.27
2019-02-17T08:46:05.639Z,29.13
2019-02-17T08:48:46.171Z,27.77
2019-02-17T08:51:26.623Z,27.63
2019-02-17T08:54:07.373Z,28.33
2019-02-17T08:56:47.844Z,27.33
2019-02-17T08:59:28.861Z,27.13
2019-02-17T09:02:09.292Z,28.00
2019-02-17T09:04:49.558Z,29.50
2019-02-17T09:07:30.498Z,27.60
2019-02-17T09:10:11.282Z,27.80
2019-02-17T09:12:52.389Z,29.17
2019-02-17T09:15:32.944Z,29.17
2019-02-17T09:18:13.505Z,28.00
2019-02-17T09:20:54.206Z,27.30
2019-02-17T09:23:34.675Z,28.27
2019-02-17T09:26:15.289Z,30.10
2019-02-17T09:28:55.749Z,28.13
2019-02-17T09:31:36.431Z,29.17
2019-02-17T09:34:17.163Z,29.63
2019-02-17T09:36:57.895Z,30.30
2019-02-17T09:39:38.465Z,28.13
2019-02-17T09:42:19.442Z,27.43
2019-02-17T09:45:00.214Z,28.97
2019-02-17T09:47:40.745Z,27.47
2019-02-17T09:50:21.347Z,27.30
2019-02-17T09:53:02.225Z,25.53
2019-02-17T09:55:42.701Z,27.07
2019-02-17T09:58:23.606Z,27.20
2019-02-17T10:01:04.651Z,26.37
2019-02-17T10:03:45.135Z,25.03
2019-02-17T10:06:26.228Z,26.17
2019-02-17T10:09:07.889Z,25.97
2019-02-17T10:11:48.665Z,25.90
2019-02-17T10:14:29.489Z,26.90
2019-02-17T10:17:10.160Z,24.67
2019-02-17T10:19:50.873Z,25.53
2019-02-17T10:22:31.532Z,26.17
2019-02-17T10:24:59.967Z,25.30
2019-02-17T10:27:48.028Z,26.67
2019-02-17T10:30:37.450Z,27.23
2019-02-17T10:33:25.196Z,24.73
2019-02-17T10:36:12.956Z,25.17
2019-02-17T10:39:00.720Z,25.13
2019-02-17T10:41:48.484Z,26.70
2019-02-17T10:44:36.252Z,25.40
2019-02-17T10:47:24.000Z,25.50
2019-02-17T10:50:12.324Z,27.43
2019-02-17T10:53:00.095Z,25.47
2019-02-17T10:55:40.661Z,26.47
2019-02-17T10:58:21.368Z,25.87
2019-02-17T11:01:02.554Z,24.93
2019-02-17T11:03:42.945Z,25.27
2019-02-17T11:06:23.726Z,27.67
2019-02-17T11:09:06.209Z,27.67
2019-02-17T11:11:46.433Z,26.37
2019-02-17T11:14:27.192Z,25.10
2019-02-17T11:17:07.837Z,26.07
2019-02-17T11:19:48.824Z,25.33
2019-02-17T11:22:30.081Z,25.53
2019-02-17T11:25:10.874Z,26.43
2019-02-17T11:27:51.988Z,26.63
2019-02-17T11:30:32.765Z,26.50
2019-02-17T11:33:13.606Z,26.00
2019-02-17T11:35:54.561Z,26.07
2019-02-17T11:38:35.541Z,26.33
2019-02-17T11:41:16.272Z,27.20
2019-02-17T11:43:56.896Z,27.23
2019-02-17T11:46:37.837Z,27.43
2019-02-17T11:49:18.852Z,26.50
2019-02-17T11:51:59.686Z,26.23
2019-02-17T11:54:40.800Z,26.20
2019-02-17T11:57:21.196Z,26.43
2019-02-17T12:00:01.872Z,25.40
2019-02-17T12:02:42.689Z,26.63
2019-02-17T12:05:23.129Z,25.07
2019-02-17T12:08:04.367Z,25.10
2019-02-17T12:10:44.785Z,25.33
2019-02-17T12:13:25.538Z,24.40
2019-02-17T12:16:06.429Z,24.43
2019-02-17T12:18:47.349Z,24.90
2019-02-17T12:21:29.890Z,24.07
2019-02-17T12:27:24.526Z,25.83
2019-02-17T12:30:05.248Z,23.87
2019-02-17T12:32:45.886Z,24.00
2019-02-17T12:35:26.537Z,24.97
2019-02-17T12:38:07.633Z,46.83
2019-02-17T12:40:48.384Z,24.87
2019-02-17T12:43:29.044Z,24.13
2019-02-17T12:46:10.062Z,25.83
2019-02-17T12:48:51.079Z,24.13
2019-02-17T12:51:32.293Z,23.70
2019-02-17T12:54:12.666Z,23.23
2019-02-17T12:56:53.138Z,23.70
2019-02-17T12:59:33.855Z,23.13
2019-02-17T13:02:14.934Z,23.40
2019-02-17T13:04:55.734Z,24.27
2019-02-17T13:07:36.236Z,24.23
2019-02-17T13:10:17.023Z,23.17
2019-02-17T13:12:57.720Z,23.80
2019-02-17T13:15:38.548Z,26.77
2019-02-17T13:18:19.339Z,24.17
2019-02-17T13:21:00.260Z,23.53
2019-02-17T13:23:41.393Z,23.53
2019-02-17T13:26:21.907Z,22.57
2019-02-17T13:29:02.579Z,23.70
2019-02-17T13:31:43.482Z,23.63
2019-02-17T13:34:24.116Z,14.23
2019-02-17T13:37:04.621Z,24.10
2019-02-17T13:39:44.957Z,23.10
2019-02-17T13:42:25.316Z,23.53
2019-02-17T13:45:05.867Z,22.70
2019-02-17T13:47:47.051Z,25.83
2019-02-17T13:50:27.869Z,22.90
2019-02-17T13:53:11.824Z,22.03
2019-02-17T13:55:51.208Z,23.17
2019-02-17T13:58:32.032Z,24.13
2019-02-17T14:01:13.117Z,21.90
2019-02-17T14:03:53.853Z,21.80
2019-02-17T14:06:35.070Z,23.27
2019-02-17T14:09:15.980Z,22.20
2019-02-17T14:11:56.654Z,22.33
2019-02-17T14:14:38.874Z,21.10
2019-02-17T14:17:19.257Z,21.37
2019-02-17T14:20:00.367Z,21.67
2019-02-17T14:22:40.905Z,22.07
2019-02-17T14:25:21.962Z,22.13
2019-02-17T14:28:02.554Z,22.00
2019-02-17T14:30:43.303Z,20.53
2019-02-17T14:33:23.849Z,20.90
2019-02-17T14:36:04.824Z,19.67
2019-02-17T14:38:45.380Z,21.53
2019-02-17T14:41:26.144Z,20.87
2019-02-17T14:44:06.801Z,20.40
2019-02-17T14:46:47.382Z,19.67
2019-02-17T14:49:27.954Z,19.97
2019-02-17T14:52:08.485Z,19.37
2019-02-17T14:54:49.180Z,20.20
2019-02-17T14:57:29.960Z,18.60
2019-02-17T15:00:10.853Z,18.87
2019-02-17T15:02:51.397Z,18.57
2019-02-17T15:05:31.854Z,17.43
2019-02-17T15:08:00.276Z,18.43
2019-02-17T15:10:48.070Z,18.17
2019-02-17T15:13:35.868Z,18.70
2019-02-17T15:16:23.664Z,17.80
2019-02-17T15:19:11.412Z,18.77
2019-02-17T15:21:59.492Z,18.10
2019-02-17T15:24:47.558Z,18.90
2019-02-17T15:27:35.381Z,18.67
2019-02-17T15:30:23.162Z,19.20
2019-02-17T15:33:11.254Z,22.97
2019-02-17T15:35:59.012Z,18.40
2019-02-17T15:38:46.764Z,19.33
2019-02-17T15:41:34.529Z,17.40
2019-02-17T15:44:22.276Z,18.10
2019-02-17T15:47:10.032Z,18.23
2019-02-17T15:49:57.797Z,18.77
2019-02-17T15:52:45.569Z,18.27
2019-02-17T15:55:25.789Z,19.93
2019-02-17T15:58:06.894Z,18.67
2019-02-17T16:00:48.003Z,19.00
2019-02-17T16:03:28.470Z,18.33
2019-02-17T16:06:08.985Z,18.83
2019-02-17T16:08:52.086Z,18.97
2019-02-17T16:11:32.332Z,18.63
2019-02-17T16:14:12.861Z,19.40
2019-02-17T16:16:53.533Z,17.70
2019-02-17T16:19:34.516Z,17.30
2019-02-17T16:22:15.407Z,17.73
2019-02-17T16:24:56.520Z,18.67
2019-02-17T16:27:37.309Z,18.97
2019-02-17T16:30:17.931Z,19.50
2019-02-17T16:32:58.753Z,20.40
2019-02-17T16:35:39.239Z,20.17
2019-02-17T16:38:19.941Z,18.93
2019-02-17T16:41:00.783Z,19.77
2019-02-17T16:43:41.637Z,20.73
2019-02-17T16:46:22.457Z,20.23
2019-02-17T16:49:03.248Z,21.80
2019-02-17T16:51:44.281Z,22.93
2019-02-17T16:54:25.121Z,22.63
2019-02-17T16:57:05.897Z,22.23
2019-02-17T16:59:46.822Z,21.30
2019-02-17T17:02:27.420Z,21.43
2019-02-17T17:05:08.308Z,21.93
2019-02-17T17:07:49.245Z,21.73
2019-02-17T17:10:29.875Z,22.07
2019-02-17T17:13:10.421Z,22.43
2019-02-17T17:15:51.369Z,22.87
2019-02-17T17:18:32.125Z,23.07
2019-02-17T17:21:12.812Z,23.93
2019-02-17T17:23:53.508Z,24.33
2019-02-17T17:26:34.221Z,23.60
2019-02-17T17:29:14.978Z,24.47
2019-02-17T17:31:55.722Z,24.43
2019-02-17T17:34:58.911Z,23.67
2019-02-17T17:37:37.249Z,24.83
2019-02-17T17:40:17.945Z,23.37
2019-02-17T17:42:58.888Z,23.83
2019-02-17T17:45:39.821Z,24.10
2019-02-17T17:48:20.710Z,24.30
2019-02-17T17:51:01.541Z,23.83
2019-02-17T17:53:42.242Z,23.90
2019-02-17T17:56:23.202Z,23.03
2019-02-17T17:59:04.097Z,24.77
2019-02-17T18:01:44.979Z,23.93
2019-02-17T18:04:25.493Z,23.73
2019-02-17T18:07:06.005Z,25.20
2019-02-17T18:09:46.921Z,25.17
2019-02-17T18:12:27.644Z,23.83
2019-02-17T18:15:08.497Z,23.07
2019-02-17T18:17:54.676Z,23.77
2019-02-17T18:20:31.940Z,24.47
2019-02-17T18:23:12.673Z,24.83
2019-02-17T18:25:53.545Z,24.63
2019-02-17T18:28:34.006Z,22.97
2019-02-17T18:31:14.905Z,24.50
2019-02-17T18:33:55.974Z,24.43
2019-02-17T18:36:36.620Z,23.50
2019-02-17T18:39:17.480Z,23.63
2019-02-17T18:41:58.191Z,23.33
2019-02-17T18:44:38.972Z,23.93
2019-02-17T18:47:19.937Z,24.03
2019-02-17T18:50:00.949Z,23.53
2019-02-17T18:52:42.011Z,24.67
2019-02-17T18:55:22.793Z,23.67
2019-02-17T18:58:03.446Z,23.73
2019-02-17T19:00:44.091Z,23.23
2019-02-17T19:03:25.043Z,24.17
2019-02-17T19:06:06.141Z,23.47
2019-02-17T19:08:47.173Z,23.43
2019-02-17T19:11:28.056Z,24.17
2019-02-17T19:14:08.543Z,23.50
2019-02-17T19:16:49.407Z,25.33
2019-02-17T19:19:29.906Z,24.30
2019-02-17T19:22:10.352Z,22.47
2019-02-17T19:24:51.342Z,25.07
2019-02-17T19:27:32.189Z,22.87
2019-02-17T19:30:12.961Z,22.73
2019-02-17T19:32:53.633Z,22.80
2019-02-17T19:35:41.591Z,23.30
2019-02-17T19:38:16.395Z,24.07
2019-02-17T19:40:57.203Z,23.73
2019-02-17T19:43:38.012Z,23.13
2019-02-17T19:46:18.760Z,23.07
2019-02-17T19:48:59.841Z,23.40
2019-02-17T19:51:40.649Z,24.67
2019-02-17T19:54:21.500Z,22.63
2019-02-17T19:57:02.591Z,23.33
2019-02-17T19:59:43.077Z,23.10
2019-02-17T20:02:25.655Z,23.30
2019-02-17T20:05:08.338Z,22.40
2019-02-17T20:07:49.221Z,22.77
2019-02-17T20:10:29.720Z,22.10
2019-02-17T20:13:10.445Z,23.03
2019-02-17T20:15:51.445Z,22.60
2019-02-17T20:18:32.080Z,22.53
2019-02-17T20:21:12.916Z,23.30
2019-02-17T20:23:53.535Z,22.67
2019-02-17T20:26:34.177Z,21.30
2019-02-17T20:29:14.592Z,21.93
2019-02-17T20:31:55.244Z,22.37
2019-02-17T20:34:36.418Z,23.70
2019-02-17T20:37:17.298Z,22.30
2019-02-17T20:39:57.821Z,23.63
2019-02-17T20:42:38.671Z,24.67
2019-02-17T20:45:19.298Z,22.37
2019-02-17T20:48:00.100Z,22.43
2019-02-17T20:50:40.856Z,22.20
2019-02-17T20:53:21.469Z,22.63
2019-02-17T20:56:01.966Z,21.10
2019-02-17T20:58:30.543Z,22.13
2019-02-17T21:01:18.562Z,21.63
2019-02-17T21:04:06.414Z,21.80
2019-02-17T21:06:54.213Z,22.00
2019-02-17T21:09:41.976Z,21.83
2019-02-17T21:12:29.803Z,22.37
2019-02-17T21:18:26.173Z,22.23
2019-02-17T21:21:14.313Z,21.30
2019-02-17T21:24:02.042Z,22.27
2019-02-17T21:26:49.828Z,22.80
2019-02-17T21:29:37.613Z,22.17
2019-02-17T21:32:25.340Z,22.20
2019-02-17T21:35:13.704Z,22.77
2019-02-17T21:38:01.480Z,23.00
2019-02-17T21:40:49.236Z,22.87
2019-02-17T21:43:37.272Z,23.97
2019-02-17T21:46:25.019Z,22.77
2019-02-17T21:49:12.776Z,22.13
2019-02-17T21:52:00.519Z,21.33
2019-02-17T21:54:48.286Z,22.97
2019-02-17T21:57:36.049Z,22.70
2019-02-17T22:00:23.817Z,23.00
2019-02-17T22:03:11.814Z,22.10
2019-02-17T22:05:59.580Z,21.97
2019-02-17T22:08:47.329Z,21.67
2019-02-17T22:11:35.092Z,22.73
2019-02-17T22:14:22.869Z,22.20
2019-02-17T22:17:10.890Z,23.53
2019-02-17T22:19:58.634Z,22.20
2019-02-17T22:22:46.448Z,22.70
2019-02-17T22:25:34.209Z,22.47
2019-02-17T22:28:22.004Z,22.37
2019-02-17T22:31:09.749Z,22.93
2019-02-17T22:33:57.521Z,22.10
2019-02-17T22:36:45.297Z,21.87
2019-02-17T22:39:33.053Z,22.77
2019-02-17T22:42:20.820Z,23.30
2019-02-17T22:45:29.291Z,22.80
2019-02-17T22:48:17.068Z,24.30
2019-02-17T22:51:04.840Z,22.20
2019-02-17T22:53:52.592Z,22.30
2019-02-17T22:56:40.361Z,22.70
2019-02-17T22:59:21.195Z,22.33
2019-02-17T23:02:02.173Z,22.27
2019-02-17T23:04:42.844Z,23.33
2019-02-17T23:07:23.549Z,22.27
2019-02-17T23:10:04.817Z,22.30
2019-02-17T23:12:45.439Z,22.40
2019-02-17T23:15:26.184Z,22.77
2019-02-17T23:18:06.821Z,23.40
2019-02-17T23:20:47.750Z,22.70
2019-02-17T23:23:28.553Z,22.90
2019-02-17T23:26:08.756Z,22.10
2019-02-17T23:28:49.743Z,22.23
2019-02-17T23:31:30.698Z,22.97
2019-02-17T23:34:11.321Z,22.07
2019-02-17T23:36:52.012Z,22.50
2019-02-17T23:39:32.966Z,23.13
2019-02-17T23:42:13.673Z,22.90
2019-02-17T23:44:54.801Z,22.73
2019-02-17T23:47:35.797Z,22.30
2019-02-17T23:50:16.402Z,21.37
2019-02-17T23:52:56.990Z,22.20
2019-02-17T23:55:37.809Z,22.50
2019-02-17T23:58:18.407Z,22.20
